createdAt,value
2023-01-04T00:04:35.361Z,7.4
2023-01-04T00:09:37.466Z,7.3
2023-01-04T00:14:39.626Z,7.3
2023-01-04T00:19:41.646Z,7.3
2023-01-04T00:24:43.897Z,7.3
2023-01-04T00:29:46.026Z,7.2
2023-01-04T00:34:48.137Z,7.3
2023-01-04T00:39:50.412Z,7.3
2023-01-04T00:44:52.886Z,7.2
2023-01-04T00:49:54.916Z,7.1
2023-01-04T00:54:57.011Z,7.1
2023-01-04T00:59:59.053Z,7
2023-01-04T01:05:01.020Z,7
2023-01-04T01:10:03.169Z,6.9
2023-01-04T01:15:05.261Z,6.9
2023-01-04T01:20:07.333Z,6.9
2023-01-04T01:25:09.359Z,6.9
2023-01-04T01:30:11.508Z,6.9
2023-01-04T01:35:13.584Z,6.9
2023-01-04T01:40:15.812Z,6.8
2023-01-04T01:45:18.126Z,6.7
2023-01-04T01:50:20.233Z,6.7
2023-01-04T01:55:22.321Z,6.6
2023-01-04T02:00:24.238Z,6.5
2023-01-04T02:05:26.499Z,6.4
2023-01-04T02:10:28.498Z,6.4
2023-01-04T02:15:30.694Z,6.3
2023-01-04T02:20:32.921Z,6.2
2023-01-04T02:25:34.980Z,6
2023-01-04T02:30:37.094Z,6
2023-01-04T02:35:39.151Z,5.9
2023-01-04T02:40:41.145Z,5.8
2023-01-04T02:45:43.096Z,5.7
2023-01-04T02:50:45.234Z,5.6
2023-01-04T02:55:48.070Z,5.4
2023-01-04T03:00:50.070Z,5.3
2023-01-04T03:05:52.137Z,5.2
2023-01-04T03:10:54.247Z,5.1
2023-01-04T03:15:56.956Z,4.8
2023-01-04T03:20:59.472Z,4.8
2023-01-04T03:26:02.368Z,4.6
2023-01-04T03:31:04.685Z,4.5
2023-01-04T03:36:06.838Z,4.5
2023-01-04T03:41:08.908Z,4.4
2023-01-04T03:46:10.921Z,4.2
2023-01-04T03:51:12.901Z,4.2
2023-01-04T03:56:14.940Z,4.1
2023-01-04T04:01:18.095Z,4
2023-01-04T04:06:20.396Z,4
2023-01-04T04:11:22.491Z,4
2023-01-04T04:16:25.202Z,3.9
2023-01-04T04:21:27.572Z,3.8
2023-01-04T04:26:29.622Z,3.8
2023-01-04T04:31:32.191Z,3.7
2023-01-04T04:36:34.460Z,3.6
2023-01-04T04:41:36.451Z,3.6
2023-01-04T04:46:38.472Z,3.5
2023-01-04T04:51:40.457Z,3.4
2023-01-04T04:56:42.472Z,3.4
2023-01-04T05:01:45.367Z,3.3
2023-01-04T05:06:48.218Z,3.2
2023-01-04T05:11:50.401Z,3.1
2023-01-04T05:16:53.332Z,3.1
2023-01-04T05:21:55.619Z,3
2023-01-04T05:26:57.641Z,3.1
2023-01-04T05:31:59.836Z,3
2023-01-04T05:37:02.009Z,2.9
2023-01-04T05:42:04.100Z,2.8
2023-01-04T05:47:16.072Z,2.7
2023-01-04T05:52:08.130Z,2.6
2023-01-04T05:57:10.163Z,2.6
2023-01-04T06:02:12.891Z,2.5
2023-01-04T06:07:15.156Z,2.4
2023-01-04T06:12:17.266Z,2.6
2023-01-04T06:17:28.798Z,2.4
2023-01-04T06:22:21.364Z,2.4
2023-01-04T06:27:25.663Z,2.4
2023-01-04T06:32:27.748Z,2.4
2023-01-04T06:37:29.869Z,2.4
2023-01-04T06:42:31.955Z,2.4
2023-01-04T06:47:34.016Z,2.4
2023-01-04T06:52:36.286Z,2.5
2023-01-04T06:57:38.484Z,2.6
2023-01-04T07:03:17.447Z,6.2
2023-01-04T07:07:49.593Z,6.6
2023-01-04T07:12:51.578Z,8.1
2023-01-04T07:17:53.653Z,9.7
2023-01-04T07:22:55.853Z,11.1
2023-01-04T07:27:58.518Z,13.3
2023-01-04T07:38:01.065Z,14.2
2023-01-04T07:43:03.520Z,15.7
2023-01-04T08:03:07.417Z,19.7
2023-01-04T08:08:09.759Z,19.6
2023-01-04T08:13:12.428Z,20.8
2023-01-04T08:18:14.459Z,20.6
2023-01-04T08:23:16.673Z,19
2023-01-04T08:28:18.691Z,18.9
2023-01-04T08:33:20.774Z,18
2023-01-04T08:39:02.651Z,18.5
2023-01-04T08:43:24.665Z,18.4
2023-01-04T08:48:26.753Z,18.8
2023-01-04T08:53:28.691Z,19.8
2023-01-04T08:58:30.756Z,22.9
2023-01-04T09:03:32.697Z,24.4
2023-01-04T09:08:35.286Z,26.4
2023-01-04T09:13:37.425Z,26.4
2023-01-04T09:23:40.044Z,27.2
2023-01-04T09:28:42.096Z,26.8
2023-01-04T09:38:49.482Z,29.4
2023-01-04T09:43:51.605Z,29.4
2023-01-04T09:48:53.680Z,28.2
2023-01-04T09:53:55.675Z,28.7
2023-01-04T09:58:57.635Z,30.2
2023-01-04T10:03:59.566Z,30.6
2023-01-04T10:09:01.898Z,30.6
2023-01-04T10:14:03.876Z,30.4
2023-01-04T10:24:06.225Z,31.3
2023-01-04T10:29:08.106Z,31.1
2023-01-04T10:34:19.472Z,32
2023-01-04T10:39:11.489Z,32
2023-01-04T10:44:16.207Z,32.1
2023-01-04T10:49:18.163Z,32
2023-01-04T10:54:20.080Z,32.1
2023-01-04T10:59:22.075Z,30.9
2023-01-04T11:04:24.072Z,31.3
2023-01-04T11:14:38.269Z,28.2
2023-01-04T11:19:30.367Z,28
2023-01-04T11:24:35.173Z,27.2
2023-01-04T11:29:37.154Z,27.2
2023-01-04T11:34:39.620Z,28.9
2023-01-04T11:39:41.588Z,28.8
2023-01-04T11:44:43.632Z,28.1
2023-01-04T11:54:46.299Z,29.5
2023-01-04T11:59:48.432Z,29.3
2023-01-04T12:04:50.312Z,28.8
2023-01-04T12:09:52.535Z,28.3
2023-01-04T12:14:54.510Z,25.9
2023-01-04T12:19:56.832Z,28.2
2023-01-04T12:25:02.999Z,25.8
2023-01-04T12:30:05.196Z,25.7
2023-01-04T12:35:07.408Z,24.5
2023-01-04T12:40:09.393Z,23
2023-01-04T12:45:11.738Z,22.5
2023-01-04T12:50:13.822Z,22.3
2023-01-04T12:55:16.222Z,21.9
2023-01-04T13:00:18.369Z,23.4
2023-01-04T13:05:58.920Z,22.2
2023-01-04T13:10:20.940Z,22.1
2023-01-04T13:15:22.985Z,22
2023-01-04T13:20:25.019Z,21.1
2023-01-04T13:25:27.069Z,20.2
2023-01-04T13:30:29.160Z,19.4
2023-01-04T13:35:31.231Z,18.9
2023-01-04T13:40:34.046Z,18.3
2023-01-04T13:45:36.178Z,18.3
2023-01-04T13:50:38.264Z,17.3
2023-01-04T13:55:40.354Z,16
2023-01-04T14:36:03.516Z,9.2
2023-01-04T14:41:05.692Z,8.9
2023-01-04T14:46:08.504Z,8.5
2023-01-04T14:51:10.765Z,8.4
2023-01-04T14:56:13.002Z,8.4
2023-01-04T15:01:16.053Z,8.1
2023-01-04T15:06:18.838Z,8
2023-01-04T15:11:20.979Z,7.9
2023-01-04T15:16:23.219Z,7.7
2023-01-04T15:21:25.538Z,7.6
2023-01-04T15:26:28.010Z,7.5
2023-01-04T15:31:40.745Z,7.4
2023-01-04T15:41:33.740Z,7.3
2023-01-04T15:46:36.026Z,7.3
2023-01-04T15:51:38.375Z,7.3
2023-01-04T15:56:40.452Z,7.2
2023-01-04T16:01:43.296Z,7.1
2023-01-04T16:06:45.609Z,7
2023-01-04T16:11:48.344Z,6.9
2023-01-04T16:16:50.862Z,6.9
2023-01-04T16:21:53.149Z,6.9
2023-01-04T16:26:55.499Z,6.9
2023-01-04T16:31:57.662Z,7
2023-01-04T16:36:59.747Z,7
2023-01-04T16:42:11.801Z,6.8
2023-01-04T16:47:04.348Z,6.8
2023-01-04T16:52:06.536Z,6.8
2023-01-04T16:57:08.607Z,6.8
2023-01-04T17:02:11.476Z,6.7
2023-01-04T17:07:13.872Z,6.6
2023-01-04T17:12:49.439Z,6.6
2023-01-04T17:17:21.643Z,6.6
2023-01-04T17:22:24.267Z,6.6
2023-01-04T17:27:25.246Z,6.6
2023-01-04T17:32:30.088Z,6.6
2023-01-04T17:37:32.160Z,6.5
2023-01-04T17:42:34.593Z,6.5
2023-01-04T17:47:36.661Z,6.4
2023-01-04T17:52:38.830Z,6.3
2023-01-04T18:02:44.573Z,6.2
2023-01-04T18:07:47.237Z,6.2
2023-01-04T18:12:49.321Z,6.1
2023-01-04T18:17:51.519Z,6.2
2023-01-04T18:22:54.354Z,6.1
2023-01-04T18:27:56.433Z,6.1
2023-01-04T18:32:58.551Z,6.1
2023-01-04T18:38:00.641Z,6.1
2023-01-04T18:43:02.887Z,6.1
2023-01-04T18:48:05.071Z,6.1
2023-01-04T18:53:07.131Z,6.2
2023-01-04T18:58:09.159Z,6.2
2023-01-04T19:03:19.871Z,6.2
2023-01-04T19:08:11.911Z,6.2
2023-01-04T19:13:13.959Z,6.2
2023-01-04T19:18:15.935Z,6.3
2023-01-04T19:23:18.042Z,6.3
2023-01-04T19:28:20.362Z,6.2
2023-01-04T19:33:23.347Z,6.3
2023-01-04T19:38:25.484Z,6.3
2023-01-04T19:43:27.609Z,6.3
2023-01-04T19:48:29.836Z,6.2
2023-01-04T19:53:32.253Z,6.6
2023-01-04T19:58:34.303Z,6.1
2023-01-04T20:03:36.440Z,6
2023-01-04T20:08:38.795Z,5.9
2023-01-04T20:13:40.934Z,5.8
2023-01-04T20:18:43.176Z,5.8
2023-01-04T20:23:45.147Z,5.8
2023-01-04T20:28:48.025Z,5.7
2023-01-04T20:33:50.051Z,5.7
2023-01-04T20:38:52.239Z,5.8
2023-01-04T20:43:54.609Z,5.8
2023-01-04T20:48:56.900Z,5.9
2023-01-04T20:54:00.882Z,6.2
2023-01-04T20:59:03.061Z,6.2
2023-01-04T21:04:05.109Z,6.3
2023-01-04T21:09:08.631Z,6.4
2023-01-04T21:14:10.691Z,6.4
2023-01-04T21:19:14.391Z,6.4
2023-01-04T21:24:20.182Z,6.4
2023-01-04T21:29:22.266Z,6.4
2023-01-04T21:34:25.013Z,6.5
2023-01-04T21:39:27.068Z,6.5
2023-01-04T21:44:32.119Z,6.6
2023-01-04T21:49:34.292Z,6.7
2023-01-04T21:54:36.445Z,6.7
2023-01-04T21:59:38.519Z,6.8
2023-01-04T22:04:40.809Z,6.8
2023-01-04T22:09:43.024Z,6.9
2023-01-04T22:14:45.012Z,6.9
2023-01-04T22:19:47.069Z,7
2023-01-04T22:24:49.138Z,7
2023-01-04T22:29:51.169Z,7
2023-01-04T22:34:53.213Z,7
2023-01-04T22:39:55.388Z,7
2023-01-04T22:44:57.445Z,7
2023-01-04T22:49:59.451Z,6.9
2023-01-04T22:55:01.583Z,6.9
2023-01-04T23:00:03.653Z,6.8
2023-01-04T23:05:05.693Z,6.8
2023-01-04T23:10:07.913Z,6.8
2023-01-04T23:15:10.060Z,6.7
2023-01-04T23:20:20.328Z,6.7
2023-01-04T23:25:12.671Z,6.7
2023-01-04T23:30:14.991Z,6.7
2023-01-04T23:35:20.402Z,6.7
2023-01-04T23:40:22.605Z,6.8
2023-01-04T23:45:24.804Z,6.8
2023-01-04T23:50:26.973Z,6.9
2023-01-04T23:55:28.959Z,6.9
